createdAt,value
2018-06-30T00:01:43.314Z,20.80
2018-06-30T00:04:11.804Z,20.60
2018-06-30T00:06:40.455Z,20.60
2018-06-30T00:09:09.532Z,20.60
2018-06-30T00:11:38.094Z,20.60
2018-06-30T00:14:06.529Z,20.60
2018-06-30T00:16:34.992Z,20.50
2018-06-30T00:19:03.502Z,20.50
2018-06-30T00:21:31.985Z,20.40
2018-06-30T00:24:01.269Z,20.40
2018-06-30T00:26:30.585Z,20.40
2018-06-30T00:28:58.999Z,20.40
2018-06-30T00:31:27.589Z,20.40
2018-06-30T00:33:56.011Z,20.30
2018-06-30T00:36:24.584Z,20.20
2018-06-30T00:38:52.997Z,20.10
2018-06-30T00:41:21.466Z,20.10
2018-06-30T00:43:49.991Z,20.10
2018-06-30T00:46:18.465Z,20.00
2018-06-30T00:48:47.478Z,19.90
2018-06-30T00:51:15.920Z,19.80
2018-06-30T00:53:44.338Z,19.70
2018-06-30T00:56:12.776Z,19.60
2018-06-30T00:58:41.229Z,19.60
2018-06-30T01:01:09.705Z,19.60
2018-06-30T01:03:38.124Z,19.50
2018-06-30T01:06:07.158Z,19.40
2018-06-30T01:08:35.677Z,19.30
2018-06-30T01:11:04.139Z,19.30
2018-06-30T01:13:32.599Z,19.20
2018-06-30T01:16:01.065Z,19.20
2018-06-30T01:18:29.537Z,19.20
2018-06-30T01:20:58.217Z,19.00
2018-06-30T01:23:26.849Z,19.00
2018-06-30T01:25:56.133Z,19.00
2018-06-30T01:28:24.657Z,18.90
2018-06-30T01:30:53.102Z,19.00
2018-06-30T01:33:21.544Z,18.90
2018-06-30T01:35:49.940Z,18.80
2018-06-30T01:38:18.597Z,18.80
2018-06-30T01:40:47.033Z,18.70
2018-06-30T01:43:15.481Z,18.60
2018-06-30T01:45:43.928Z,18.60
2018-06-30T01:48:12.497Z,18.50
2018-06-30T01:50:40.908Z,18.50
2018-06-30T01:53:09.298Z,18.40
2018-06-30T01:55:37.697Z,18.40
2018-06-30T01:58:07.088Z,18.30
2018-06-30T02:00:35.580Z,18.30
2018-06-30T02:03:04.148Z,18.30
2018-06-30T02:05:32.621Z,18.20
2018-06-30T02:08:01.050Z,18.20
2018-06-30T02:10:29.452Z,18.10
2018-06-30T02:12:58.753Z,18.00
2018-06-30T02:15:27.230Z,17.90
2018-06-30T02:17:55.661Z,17.90
2018-06-30T02:20:24.075Z,17.80
2018-06-30T02:22:52.613Z,17.70
2018-06-30T02:25:21.265Z,17.80
2018-06-30T02:27:49.698Z,17.90
2018-06-30T02:30:18.105Z,17.80
2018-06-30T02:32:46.530Z,17.80
2018-06-30T02:35:15.019Z,17.70
2018-06-30T02:37:43.468Z,17.70
2018-06-30T02:40:11.897Z,17.60
2018-06-30T02:42:40.411Z,17.60
2018-06-30T02:45:08.803Z,17.60
2018-06-30T02:47:37.245Z,17.50
2018-06-30T02:50:06.701Z,17.50
2018-06-30T02:52:35.129Z,17.50
2018-06-30T02:55:03.623Z,17.40
2018-06-30T02:57:32.142Z,17.40
2018-06-30T03:00:00.569Z,17.30
2018-06-30T03:02:28.994Z,17.40
2018-06-30T03:04:57.519Z,17.30
2018-06-30T03:07:26.016Z,17.20
2018-06-30T03:09:55.004Z,17.10
2018-06-30T03:12:24.021Z,17.10
2018-06-30T03:14:52.597Z,17.00
2018-06-30T03:17:21.189Z,17.00
2018-06-30T03:19:49.728Z,17.00
2018-06-30T03:22:18.962Z,17.00
2018-06-30T03:24:47.412Z,17.00
2018-06-30T03:27:15.908Z,16.90
2018-06-30T03:29:44.340Z,16.90
2018-06-30T03:32:12.785Z,16.90
2018-06-30T03:34:41.841Z,16.80
2018-06-30T03:37:10.308Z,16.70
2018-06-30T03:39:38.738Z,16.60
2018-06-30T03:42:07.752Z,16.60
2018-06-30T03:44:36.409Z,16.50
2018-06-30T03:49:33.465Z,16.50
2018-06-30T03:52:01.889Z,16.50
2018-06-30T03:54:34.443Z,16.40
2018-06-30T03:57:03.598Z,16.40
2018-06-30T03:59:32.024Z,16.50
2018-06-30T04:02:00.517Z,16.50
2018-06-30T04:04:28.919Z,16.50
2018-06-30T04:06:57.343Z,16.40
2018-06-30T04:09:25.774Z,16.30
2018-06-30T04:11:54.196Z,16.40
2018-06-30T04:14:23.380Z,16.50
2018-06-30T04:16:51.829Z,16.60
2018-06-30T04:19:20.356Z,16.60
2018-06-30T04:21:48.792Z,16.50
2018-06-30T04:24:17.216Z,16.50
2018-06-30T04:26:45.653Z,16.50
2018-06-30T04:29:14.481Z,16.50
2018-06-30T04:31:42.903Z,16.40
2018-06-30T04:34:11.481Z,16.50
2018-06-30T04:36:39.877Z,16.50
2018-06-30T04:39:09.715Z,16.50
2018-06-30T04:41:38.224Z,16.60
2018-06-30T04:44:06.892Z,16.50
2018-06-30T04:46:35.349Z,16.50
2018-06-30T04:49:03.977Z,16.50
2018-06-30T04:51:32.444Z,16.50
2018-06-30T04:54:00.887Z,16.40
2018-06-30T04:56:29.302Z,16.50
2018-06-30T04:58:57.710Z,16.50
2018-06-30T05:01:26.150Z,16.50
2018-06-30T05:03:54.592Z,16.50
2018-06-30T05:06:23.072Z,16.50
2018-06-30T05:08:51.499Z,16.50
2018-06-30T05:11:20.080Z,16.50
2018-06-30T05:13:49.293Z,16.60
2018-06-30T05:16:17.724Z,16.60
2018-06-30T05:18:46.178Z,16.80
2018-06-30T05:23:43.037Z,16.80
2018-06-30T05:26:11.477Z,16.90
2018-06-30T05:28:40.013Z,16.90
2018-06-30T05:31:08.426Z,17.10
2018-06-30T05:33:36.872Z,17.00
2018-06-30T05:36:05.321Z,17.20
2018-06-30T05:38:33.796Z,17.20
2018-06-30T05:41:02.325Z,17.20
2018-06-30T05:43:31.074Z,17.30
2018-06-30T05:45:59.512Z,17.30
2018-06-30T05:48:27.937Z,17.40
2018-06-30T05:50:56.448Z,17.40
2018-06-30T05:53:24.930Z,17.60
2018-06-30T05:55:54.134Z,17.50
2018-06-30T05:58:22.536Z,17.50
2018-06-30T06:00:51.034Z,17.50
2018-06-30T06:03:19.448Z,17.60
2018-06-30T06:05:47.857Z,17.70
2018-06-30T06:08:16.320Z,17.90
2018-06-30T06:10:44.817Z,18.00
2018-06-30T06:13:13.189Z,18.10
2018-06-30T06:15:41.665Z,18.10
2018-06-30T06:18:10.171Z,17.90
2018-06-30T06:20:38.744Z,17.90
2018-06-30T06:23:07.170Z,18.00
2018-06-30T06:25:35.611Z,18.10
2018-06-30T06:28:04.061Z,18.20
2018-06-30T06:30:33.089Z,18.60
2018-06-30T06:33:01.526Z,18.80
2018-06-30T06:35:29.990Z,19.00
2018-06-30T06:37:58.448Z,19.00
2018-06-30T06:40:26.889Z,19.10
2018-06-30T06:42:55.296Z,19.10
2018-06-30T06:45:23.746Z,19.10
2018-06-30T06:47:52.268Z,19.20
2018-06-30T06:50:20.753Z,19.40
2018-06-30T06:52:49.208Z,19.50
2018-06-30T06:55:18.154Z,19.60
2018-06-30T06:57:46.767Z,19.80
2018-06-30T07:00:15.209Z,19.90
2018-06-30T07:02:43.697Z,20.10
2018-06-30T07:05:13.488Z,20.10
2018-06-30T07:07:41.964Z,20.20
2018-06-30T07:10:10.485Z,20.30
2018-06-30T07:12:39.573Z,20.40
2018-06-30T07:15:08.098Z,20.30
2018-06-30T07:17:36.655Z,20.20
2018-06-30T07:20:05.185Z,20.30
2018-06-30T07:22:33.776Z,20.50
2018-06-30T07:25:02.186Z,20.60
2018-06-30T07:27:31.262Z,20.70
2018-06-30T07:29:59.767Z,20.90
2018-06-30T07:32:28.928Z,21.00
2018-06-30T07:34:57.334Z,21.10
2018-06-30T07:37:25.798Z,21.20
2018-06-30T07:39:54.230Z,21.20
2018-06-30T07:42:22.866Z,21.30
2018-06-30T07:44:51.354Z,21.40
2018-06-30T07:47:20.102Z,21.60
2018-06-30T07:49:49.038Z,21.80
2018-06-30T07:52:18.120Z,21.70
2018-06-30T07:54:46.680Z,21.70
2018-06-30T07:57:15.108Z,21.70
2018-06-30T07:59:44.589Z,21.80
2018-06-30T08:02:13.674Z,21.90
2018-06-30T08:04:42.100Z,21.80
2018-06-30T08:07:15.067Z,21.80
2018-06-30T08:09:43.777Z,22.00
2018-06-30T08:12:12.628Z,22.20
2018-06-30T08:14:41.173Z,22.40
2018-06-30T08:17:10.495Z,22.50
2018-06-30T08:19:38.932Z,22.50
2018-06-30T08:22:07.544Z,22.70
2018-06-30T08:24:36.225Z,22.60
2018-06-30T08:27:04.857Z,22.70
2018-06-30T08:29:34.020Z,22.60
2018-06-30T08:32:02.476Z,22.70
2018-06-30T08:34:30.960Z,22.70
2018-06-30T08:36:59.705Z,22.80
2018-06-30T08:39:28.145Z,22.80
2018-06-30T08:41:57.268Z,23.00
2018-06-30T08:44:26.428Z,23.30
2018-06-30T08:46:54.891Z,23.40
2018-06-30T08:49:23.377Z,23.50
2018-06-30T08:51:52.257Z,23.50
2018-06-30T09:07:26.212Z,23.70
2018-06-30T09:09:54.656Z,23.60
2018-06-30T09:12:23.366Z,23.80
2018-06-30T09:14:51.914Z,24.00
2018-06-30T09:17:20.615Z,24.10
2018-06-30T09:19:49.114Z,24.30
2018-06-30T09:22:18.298Z,24.40
2018-06-30T09:24:46.980Z,24.70
2018-06-30T09:27:16.219Z,24.90
2018-06-30T09:29:45.290Z,25.10
2018-06-30T09:32:13.706Z,24.90
2018-06-30T09:34:42.204Z,25.00
2018-06-30T09:37:10.634Z,24.90
2018-06-30T09:39:39.282Z,25.10
2018-06-30T09:42:07.872Z,25.40
2018-06-30T09:44:36.350Z,25.70
2018-06-30T09:47:04.884Z,25.80
2018-06-30T09:49:33.384Z,26.00
2018-06-30T09:52:02.072Z,26.00
2018-06-30T09:54:30.641Z,25.80
2018-06-30T09:56:59.095Z,25.50
2018-06-30T09:59:27.561Z,25.70
2018-06-30T10:01:56.001Z,25.90
2018-06-30T10:04:24.730Z,26.00
2018-06-30T10:06:53.540Z,26.00
2018-06-30T10:09:22.083Z,26.00
2018-06-30T10:11:50.574Z,26.10
2018-06-30T10:14:19.056Z,26.20
2018-06-30T10:16:47.561Z,26.40
2018-06-30T10:19:16.126Z,26.60
2018-06-30T10:24:12.758Z,26.90
2018-06-30T10:26:45.665Z,27.00
2018-06-30T10:29:14.177Z,27.00
2018-06-30T10:31:42.634Z,26.90
2018-06-30T10:34:11.160Z,27.00
2018-06-30T10:36:47.272Z,27.10
2018-06-30T10:39:16.561Z,27.10
2018-06-30T10:41:45.774Z,27.00
2018-06-30T10:44:14.207Z,27.00
2018-06-30T10:46:42.713Z,27.20
2018-06-30T10:49:11.183Z,27.40
2018-06-30T10:51:39.692Z,27.70
2018-06-30T10:54:08.212Z,27.80
2018-06-30T10:56:36.663Z,28.00
2018-06-30T10:59:05.446Z,28.10
2018-06-30T11:01:33.909Z,28.20
2018-06-30T11:04:02.419Z,28.10
2018-06-30T11:06:31.668Z,28.10
2018-06-30T11:09:00.155Z,27.90
2018-06-30T11:11:28.948Z,28.20
2018-06-30T11:13:57.922Z,28.30
2018-06-30T11:16:26.411Z,28.40
2018-06-30T11:18:54.946Z,28.30
2018-06-30T11:21:23.431Z,28.20
2018-06-30T11:23:51.884Z,28.40
2018-06-30T11:26:20.708Z,28.40
2018-06-30T11:28:49.245Z,28.30
2018-06-30T11:31:17.781Z,28.30
2018-06-30T11:33:50.742Z,28.10
2018-06-30T11:36:20.235Z,28.10
2018-06-30T11:38:48.710Z,28.20
2018-06-30T11:41:18.044Z,28.10
2018-06-30T11:43:47.093Z,28.10
2018-06-30T11:46:15.937Z,28.10
2018-06-30T11:48:44.346Z,28.10
2018-06-30T11:51:12.940Z,28.20
2018-06-30T11:53:41.336Z,28.40
2018-06-30T11:56:09.793Z,28.30
2018-06-30T11:58:38.242Z,28.30
2018-06-30T12:01:06.694Z,28.20
2018-06-30T12:03:35.194Z,28.20
2018-06-30T12:06:04.213Z,28.30
2018-06-30T12:08:34.197Z,28.20
2018-06-30T12:11:02.681Z,28.30
2018-06-30T12:13:31.147Z,28.30
2018-06-30T12:15:59.706Z,28.20
2018-06-30T12:18:28.613Z,28.00
2018-06-30T12:20:57.114Z,28.10
2018-06-30T12:23:25.681Z,28.20
2018-06-30T12:25:54.475Z,28.30
2018-06-30T12:28:22.974Z,28.30
2018-06-30T12:30:52.097Z,28.40
2018-06-30T12:33:20.567Z,28.40
2018-06-30T12:35:49.028Z,28.40
2018-06-30T12:38:18.759Z,28.30
2018-06-30T12:40:47.235Z,28.20
2018-06-30T12:43:16.674Z,28.00
2018-06-30T12:45:45.288Z,27.90
2018-06-30T12:48:13.730Z,27.70
2018-06-30T12:50:42.206Z,27.80
2018-06-30T12:53:10.701Z,27.80
2018-06-30T12:55:39.352Z,27.80
2018-06-30T12:58:12.291Z,27.90
2018-06-30T13:00:41.156Z,28.00
2018-06-30T13:03:09.658Z,28.10
2018-06-30T13:06:06.573Z,28.20
2018-06-30T13:08:39.536Z,28.20
2018-06-30T13:11:08.299Z,28.20
2018-06-30T13:13:40.757Z,28.20
2018-06-30T13:16:09.997Z,28.20
2018-06-30T13:18:38.459Z,28.30
2018-06-30T13:34:11.956Z,28.10
2018-06-30T13:36:41.004Z,27.00
2018-06-30T13:39:13.675Z,27.00
2018-06-30T13:41:43.119Z,27.20
2018-06-30T13:44:12.065Z,27.30
2018-06-30T13:46:40.757Z,27.30
2018-06-30T13:49:09.371Z,27.30
2018-06-30T13:51:37.896Z,27.50
2018-06-30T13:54:06.812Z,27.50
2018-06-30T13:56:35.272Z,27.50
2018-06-30T13:59:03.804Z,27.50
2018-06-30T14:01:33.081Z,27.60
2018-06-30T14:04:01.953Z,27.60
2018-06-30T14:06:30.432Z,27.70
2018-06-30T14:08:59.641Z,27.70
2018-06-30T14:11:28.065Z,27.70
2018-06-30T14:13:56.697Z,27.80
2018-06-30T14:16:25.137Z,27.80
2018-06-30T14:18:53.598Z,27.80
2018-06-30T14:21:22.116Z,27.90
2018-06-30T14:23:54.905Z,28.10
2018-06-30T14:26:23.363Z,28.10
2018-06-30T14:28:52.212Z,28.20
2018-06-30T14:31:20.660Z,28.20
2018-06-30T14:33:49.461Z,28.10
2018-06-30T14:36:18.319Z,28.10
2018-06-30T14:38:47.065Z,28.20
2018-06-30T14:41:15.465Z,28.20
2018-06-30T14:43:44.293Z,28.30
2018-06-30T14:46:13.103Z,28.20
2018-06-30T14:48:42.091Z,28.00
2018-06-30T15:04:15.660Z,28.10
2018-06-30T15:06:45.346Z,28.20
2018-06-30T15:09:15.740Z,28.40
2018-06-30T15:11:45.236Z,28.40
2018-06-30T15:14:14.923Z,28.40
2018-06-30T15:29:49.150Z,28.30
2018-06-30T15:32:17.589Z,27.00
2018-06-30T15:34:46.088Z,27.00
2018-06-30T15:37:14.595Z,27.20
2018-06-30T15:39:43.009Z,27.20
2018-06-30T15:42:11.407Z,27.10
2018-06-30T15:44:39.964Z,27.10
2018-06-30T15:47:08.522Z,27.00
2018-06-30T15:49:37.086Z,26.90
2018-06-30T15:52:05.542Z,26.70
2018-06-30T15:54:34.046Z,26.60
2018-06-30T15:57:02.612Z,26.50
2018-06-30T15:59:31.407Z,26.50
2018-06-30T16:01:59.883Z,26.40
2018-06-30T16:04:28.359Z,26.50
2018-06-30T16:06:56.838Z,26.60
2018-06-30T16:09:25.282Z,26.50
2018-06-30T16:24:58.767Z,26.30
2018-06-30T16:27:27.325Z,25.20
2018-06-30T16:29:55.805Z,25.30
2018-06-30T16:32:24.293Z,25.40
2018-06-30T16:34:52.726Z,25.40
2018-06-30T16:37:21.162Z,25.60
2018-06-30T16:39:49.640Z,25.70
2018-06-30T16:42:18.184Z,25.60
2018-06-30T16:44:47.026Z,25.60
2018-06-30T16:47:15.517Z,25.50
2018-06-30T16:49:44.064Z,25.40
2018-06-30T16:52:12.529Z,25.30
2018-06-30T16:54:41.817Z,25.30
2018-06-30T16:57:10.626Z,25.30
2018-06-30T16:59:39.829Z,25.20
2018-06-30T17:02:08.662Z,25.20
2018-06-30T17:04:37.152Z,25.20
2018-06-30T17:07:05.616Z,25.10
2018-06-30T17:09:34.113Z,25.00
2018-06-30T17:12:02.522Z,24.90
2018-06-30T17:14:31.112Z,24.80
2018-06-30T17:16:59.784Z,24.70
2018-06-30T17:19:28.263Z,24.60
2018-06-30T17:22:01.416Z,24.60
2018-06-30T17:24:29.947Z,24.60
2018-06-30T17:26:58.434Z,24.50
2018-06-30T17:29:31.237Z,24.50
2018-06-30T17:41:44.708Z,24.40
2018-06-30T17:44:13.228Z,23.90
2018-06-30T17:46:41.720Z,23.90
2018-06-30T17:49:10.177Z,24.10
2018-06-30T17:51:40.034Z,24.20
2018-06-30T17:54:08.825Z,24.10
2018-06-30T17:56:37.337Z,24.10
2018-06-30T17:59:05.905Z,24.20
2018-06-30T18:01:35.103Z,24.20
2018-06-30T18:04:03.991Z,24.20
2018-06-30T18:06:32.448Z,24.20
2018-06-30T18:09:01.242Z,24.20
2018-06-30T18:11:29.725Z,24.20
2018-06-30T18:13:58.578Z,24.20
2018-06-30T18:16:27.101Z,24.20
2018-06-30T18:18:55.578Z,24.10
2018-06-30T18:21:24.085Z,24.10
2018-06-30T18:23:53.349Z,24.10
2018-06-30T18:26:21.784Z,24.10
2018-06-30T18:28:54.481Z,24.10
2018-06-30T18:31:22.998Z,24.00
2018-06-30T18:33:52.965Z,24.00
2018-06-30T18:36:21.741Z,24.00
2018-06-30T18:38:50.278Z,24.00
2018-06-30T18:41:19.002Z,24.00
2018-06-30T18:43:47.634Z,24.00
2018-06-30T18:46:16.081Z,23.90
2018-06-30T18:48:44.971Z,23.90
2018-06-30T18:51:13.542Z,23.80
2018-06-30T18:53:42.029Z,23.80
2018-06-30T18:56:10.562Z,23.70
2018-06-30T18:58:39.066Z,23.70
2018-06-30T19:01:07.622Z,23.60
2018-06-30T19:03:36.089Z,23.60
2018-06-30T19:06:04.822Z,23.50
2018-06-30T19:08:33.438Z,23.50
2018-06-30T19:11:04.330Z,23.50
2018-06-30T19:13:32.813Z,23.40
2018-06-30T19:16:02.383Z,23.40
2018-06-30T19:18:30.732Z,23.40
2018-06-30T19:20:59.313Z,23.40
2018-06-30T19:23:27.766Z,23.40
2018-06-30T19:25:56.384Z,23.30
2018-06-30T19:28:24.873Z,23.20
2018-06-30T19:30:53.377Z,23.20
2018-06-30T19:33:21.777Z,23.20
2018-06-30T19:35:50.268Z,23.10
2018-06-30T19:38:19.323Z,23.10
2018-06-30T19:40:47.971Z,23.10
2018-06-30T19:43:16.420Z,23.00
2018-06-30T19:45:44.906Z,22.90
2018-06-30T19:48:13.512Z,22.90
2018-06-30T19:50:42.766Z,22.80
2018-06-30T19:53:11.653Z,22.80
2018-06-30T19:55:40.754Z,22.80
2018-06-30T19:58:14.970Z,22.70
2018-06-30T20:00:43.462Z,22.60
2018-06-30T20:03:11.891Z,22.50
2018-06-30T20:05:40.709Z,22.40
2018-06-30T20:08:09.084Z,22.30
2018-06-30T20:10:37.546Z,22.30
2018-06-30T20:15:34.583Z,22.20
2018-06-30T20:18:03.121Z,22.20
2018-06-30T20:20:31.823Z,22.10
2018-06-30T20:23:00.443Z,22.10
2018-06-30T20:25:28.929Z,22.10
2018-06-30T20:27:57.433Z,22.00
2018-06-30T20:30:26.222Z,21.90
2018-06-30T20:32:59.152Z,21.90
2018-06-30T20:35:29.094Z,21.80
2018-06-30T20:37:57.699Z,21.60
2018-06-30T20:40:26.360Z,21.70
2018-06-30T20:42:54.821Z,21.70
2018-06-30T20:45:23.901Z,21.60
2018-06-30T20:47:52.446Z,21.60
2018-06-30T20:50:21.464Z,21.60
2018-06-30T20:52:50.081Z,21.60
2018-06-30T20:55:18.662Z,21.50
2018-06-30T20:57:47.185Z,21.40
2018-06-30T21:00:19.524Z,21.50
2018-06-30T21:02:48.014Z,21.40
2018-06-30T21:05:16.513Z,21.30
2018-06-30T21:07:45.040Z,21.20
2018-06-30T21:10:13.530Z,21.10
2018-06-30T21:12:42.044Z,21.10
2018-06-30T21:15:11.128Z,21.00
2018-06-30T21:17:39.778Z,21.00
2018-06-30T21:20:08.260Z,21.00
2018-06-30T21:22:37.302Z,20.90
2018-06-30T21:25:05.858Z,20.90
2018-06-30T21:27:35.064Z,20.80
2018-06-30T21:30:04.726Z,20.80
2018-06-30T21:32:33.500Z,20.80
2018-06-30T21:35:01.992Z,20.80
2018-06-30T21:37:30.533Z,20.80
2018-06-30T21:39:59.221Z,20.80
2018-06-30T21:42:28.502Z,20.70
2018-06-30T21:44:57.128Z,20.70
2018-06-30T21:47:25.630Z,20.60
2018-06-30T21:49:54.184Z,20.60
2018-06-30T21:52:25.125Z,20.50
2018-06-30T21:54:53.726Z,20.50
2018-06-30T21:57:22.185Z,20.50
2018-06-30T21:59:51.374Z,20.50
2018-06-30T22:02:19.953Z,20.50
2018-06-30T22:04:52.628Z,20.40
2018-06-30T22:07:21.126Z,20.30
2018-06-30T22:09:49.718Z,20.30
2018-06-30T22:12:18.420Z,20.20
2018-06-30T22:14:47.163Z,20.20
2018-06-30T22:17:16.259Z,20.20
2018-06-30T22:19:44.743Z,20.20
2018-06-30T22:22:13.215Z,20.10
2018-06-30T22:24:41.774Z,20.00
2018-06-30T22:27:11.009Z,19.90
2018-06-30T22:29:39.503Z,20.00
2018-06-30T22:32:08.785Z,19.90
2018-06-30T22:34:37.615Z,19.80
2018-06-30T22:37:06.448Z,19.70
2018-06-30T22:39:46.110Z,19.70
2018-06-30T22:42:14.585Z,19.60
2018-06-30T22:44:43.029Z,19.60
2018-06-30T22:47:11.482Z,19.40
2018-06-30T22:49:40.207Z,19.50
2018-06-30T22:52:08.750Z,19.50
2018-06-30T22:54:37.338Z,19.40
2018-06-30T22:57:06.226Z,19.40
2018-06-30T22:59:34.789Z,19.30
2018-06-30T23:02:04.182Z,19.30
2018-06-30T23:04:32.655Z,19.30
2018-06-30T23:07:01.410Z,19.30
2018-06-30T23:09:30.201Z,19.20
2018-06-30T23:11:58.615Z,19.10
2018-06-30T23:14:27.865Z,19.10
2018-06-30T23:16:56.473Z,19.10
2018-06-30T23:19:25.017Z,19.10
2018-06-30T23:21:54.178Z,19.10
2018-06-30T23:24:22.605Z,19.10
2018-06-30T23:26:55.626Z,19.00
2018-06-30T23:29:24.584Z,19.00
2018-06-30T23:31:53.279Z,19.00
2018-06-30T23:34:21.969Z,18.90
2018-06-30T23:36:50.438Z,18.90
2018-06-30T23:39:19.623Z,18.90
2018-06-30T23:41:48.193Z,18.90
2018-06-30T23:44:16.770Z,18.80
2018-06-30T23:46:45.568Z,18.70
2018-06-30T23:49:14.126Z,18.70
2018-06-30T23:51:42.718Z,18.70
2018-06-30T23:54:15.861Z,18.50
2018-06-30T23:56:44.421Z,18.60
2018-06-30T23:59:13.094Z,18.60
